createdAt,value
2023-04-26T00:00:59.456Z,12.38
2023-04-26T00:01:59.507Z,12.35
2023-04-26T00:02:59.621Z,13.70
2023-04-26T00:03:59.812Z,13.26
2023-04-26T00:04:59.859Z,14.35
2023-04-26T00:05:59.749Z,14.35
2023-04-26T00:06:59.783Z,14.45
2023-04-26T00:07:59.842Z,13.10
2023-04-26T00:08:59.881Z,12.90
2023-04-26T00:09:59.949Z,12.45
2023-04-26T00:10:59.999Z,13.55
2023-04-26T00:12:00.045Z,14.18
2023-04-26T00:13:00.132Z,11.85
2023-04-26T00:14:00.161Z,9.59
2023-04-26T00:15:00.218Z,10.24
2023-04-26T00:16:00.365Z,10.83
2023-04-26T00:17:00.288Z,11.34
2023-04-26T00:18:00.441Z,11.60
2023-04-26T00:19:00.379Z,11.65
2023-04-26T00:20:00.414Z,11.03
2023-04-26T00:21:00.484Z,9.82
2023-04-26T00:22:00.510Z,8.15
2023-04-26T00:23:00.577Z,8.97
2023-04-26T00:24:00.659Z,9.63
2023-04-26T00:25:00.683Z,10.62
2023-04-26T00:26:00.724Z,11.12
2023-04-26T00:27:00.774Z,10.27
2023-04-26T00:28:00.863Z,9.16
2023-04-26T00:29:00.903Z,6.18
2023-04-26T00:30:00.934Z,6.98
2023-04-26T00:31:00.946Z,7.27
2023-04-26T00:32:01.133Z,6.19
2023-04-26T00:33:01.111Z,7.18
2023-04-26T00:34:01.111Z,7.75
2023-04-26T00:35:01.178Z,9.62
2023-04-26T00:36:01.213Z,9.69
2023-04-26T00:37:01.272Z,8.81
2023-04-26T00:38:01.309Z,9.61
2023-04-26T00:39:01.354Z,7.74
2023-04-26T00:40:01.451Z,7.43
2023-04-26T00:41:01.472Z,7.12
2023-04-26T00:42:01.528Z,6.62
2023-04-26T00:43:01.559Z,6.14
2023-04-26T00:44:01.682Z,7.44
2023-04-26T00:45:01.681Z,7.17
2023-04-26T00:46:01.770Z,6.88
2023-04-26T00:47:01.769Z,7.38
2023-04-26T00:48:01.950Z,8.11
2023-04-26T00:49:01.885Z,7.50
2023-04-26T00:50:01.948Z,7.29
2023-04-26T00:51:02.002Z,6.79
2023-04-26T00:52:02.064Z,8.23
2023-04-26T00:53:02.128Z,9.40
2023-04-26T00:54:02.169Z,9.84
2023-04-26T00:55:02.199Z,10.23
2023-04-26T00:56:02.282Z,10.11
2023-04-26T00:57:02.322Z,10.72
2023-04-26T00:58:02.381Z,10.80
2023-04-26T00:59:02.441Z,11.25
2023-04-26T01:00:02.501Z,10.39
